Time;durP1;ratioP1;P1;durP2;ratioP2;P2;SDS_P1;SDS_P2;PMS_P1;PMS_P2;Temp;Humidity;BMP_temperature;BMP_pressure;BME280_temperature;BME280_humidity;BME280_pressure;Samples;Min_cycle;Max_cycle;Signal;HPM_P1;HPM_P2
2023/01/09 00:01:19;;;;;;;3.70;2.60;;;9.20;61.60;;;;;;5027127;28;20596;-72
2023/01/09 00:03:44;;;;;;;2.93;2.63;;;9.20;63.70;;;;;;5028265;28;20388;-71
2023/01/09 00:06:10;;;;;;;3.70;2.90;;;9.20;65.20;;;;;;5029223;28;20425;-72
2023/01/09 00:08:36;;;;;;;4.20;2.73;;;9.20;66.50;;;;;;5021204;28;20273;-71
2023/01/09 00:11:01;;;;;;;3.10;2.80;;;9.20;68.60;;;;;;5029038;28;20564;-70
2023/01/09 00:13:27;;;;;;;3.00;2.70;;;9.20;69.00;;;;;;5028556;28;20216;-71
2023/01/09 00:15:52;;;;;;;4.83;3.00;;;9.20;68.70;;;;;;5023039;28;20227;-72
2023/01/09 00:18:18;;;;;;;3.83;3.30;;;9.20;68.90;;;;;;5025951;28;20198;-71
2023/01/09 00:20:43;;;;;;;3.23;2.80;;;9.20;69.00;;;;;;5028043;28;20178;-71
2023/01/09 00:23:09;;;;;;;4.53;2.93;;;9.10;72.90;;;;;;5027350;28;20631;-72
2023/01/09 00:25:34;;;;;;;2.93;2.70;;;9.10;74.70;;;;;;5028354;28;20194;-72
2023/01/09 00:28:00;;;;;;;3.07;2.73;;;9.20;74.40;;;;;;5028450;28;20178;-71
2023/01/09 00:30:26;;;;;;;2.90;2.60;;;9.10;72.40;;;;;;5030337;28;20185;-72
2023/01/09 00:32:53;;;;;;;3.17;2.77;;;9.10;74.30;;;;;;5025894;28;20201;-73
2023/01/09 00:35:19;;;;;;;3.10;2.60;;;9.10;77.40;;;;;;5026524;28;20213;-71
2023/01/09 00:37:45;;;;;;;3.07;2.50;;;9.10;73.90;;;;;;5028390;28;20409;-71
2023/01/09 00:40:13;;;;;;;3.47;3.00;;;9.10;75.40;;;;;;5027692;28;20424;-71
2023/01/09 00:42:39;;;;;;;3.57;2.50;;;9.10;77.10;;;;;;5027643;28;20225;-71
2023/01/09 00:45:10;;;;;;;3.60;2.83;;;9.10;75.00;;;;;;5022943;28;20440;-71
2023/01/09 00:47:43;;;;;;;3.20;2.37;;;9.10;75.60;;;;;;5027270;28;20437;-71
2023/01/09 00:50:19;;;;;;;2.40;2.10;;;9.10;74.70;;;;;;5018930;28;20485;-71
2023/01/09 00:52:46;;;;;;;2.57;2.37;;;9.10;75.70;;;;;;5026476;28;20451;-72
2023/01/09 00:55:13;;;;;;;3.17;2.40;;;9.10;75.20;;;;;;5026214;28;20465;-71
2023/01/09 00:57:39;;;;;;;6.30;2.40;;;9.10;72.40;;;;;;5025519;28;20416;-71
2023/01/09 01:00:06;;;;;;;2.87;2.20;;;9.10;72.30;;;;;;5027066;28;21024;-71
2023/01/09 01:02:31;;;;;;;2.63;2.40;;;9.10;71.10;;;;;;5021401;28;20255;-73
2023/01/09 01:07:42;;;;;;;3.10;2.30;;;9.10;71.30;;;;;;5026545;28;20496;-71
2023/01/09 01:10:09;;;;;;;2.13;1.93;;;9.00;73.50;;;;;;5027927;28;20425;-71
2023/01/09 01:12:36;;;;;;;2.30;2.00;;;9.10;69.80;;;;;;5026107;28;20440;-70
2023/01/09 01:15:02;;;;;;;2.13;1.93;;;9.10;67.40;;;;;;5017114;28;20500;-69
2023/01/09 01:17:27;;;;;;;1.83;1.60;;;9.10;66.80;;;;;;5025187;28;20429;-70
2023/01/09 01:19:53;;;;;;;2.27;2.00;;;9.10;64.70;;;;;;5021351;28;20732;-71
2023/01/09 01:22:19;;;;;;;1.87;1.70;;;9.10;66.40;;;;;;5026545;28;20265;-71
2023/01/09 01:24:44;;;;;;;2.30;1.93;;;9.20;61.90;;;;;;5025714;28;20198;-70
2023/01/09 01:27:10;;;;;;;1.90;1.80;;;9.20;57.20;;;;;;5025736;28;20360;-70
2023/01/09 01:29:35;;;;;;;3.03;1.90;;;9.20;60.10;;;;;;5025913;28;20190;-70
2023/01/09 01:32:01;;;;;;;3.20;2.00;;;9.40;57.80;;;;;;5025957;28;20229;-72
2023/01/09 01:34:28;;;;;;;1.90;1.60;;;9.40;56.00;;;;;;5025544;28;20582;-71
2023/01/09 01:36:53;;;;;;;2.40;1.57;;;9.40;53.80;;;;;;5026818;28;20193;-69
2023/01/09 01:39:19;;;;;;;1.60;1.50;;;9.50;47.30;;;;;;5027090;28;20432;-74
2023/01/09 01:41:45;;;;;;;1.43;1.33;;;9.50;49.70;;;;;;5025394;28;20534;-72
2023/01/09 01:44:47;;;;;;;2.77;1.70;;;9.50;42.80;;;;;;5024335;28;20637;-72
2023/01/09 01:47:15;;;;;;;3.13;1.67;;;9.60;54.30;;;;;;5020793;28;20269;-72
2023/01/09 01:49:41;;;;;;;1.40;1.30;;;9.60;57.90;;;;;;5027635;28;20924;-71
2023/01/09 01:52:07;;;;;;;2.77;1.90;;;9.60;59.60;;;;;;5024937;28;20460;-71
2023/01/09 01:54:32;;;;;;;2.07;1.80;;;9.70;59.50;;;;;;5026405;28;20251;-70
2023/01/09 01:57:02;;;;;;;2.37;1.87;;;9.70;59.60;;;;;;5026446;28;20193;-71
2023/01/09 01:59:49;;;;;;;2.70;1.60;;;9.60;57.70;;;;;;5024404;28;20174;-72
2023/01/09 02:02:17;;;;;;;1.60;1.47;;;9.60;55.20;;;;;;5019158;28;20482;-73
2023/01/09 02:04:44;;;;;;;1.70;1.60;;;9.60;53.50;;;;;;5029947;28;20548;-72
2023/01/09 02:07:09;;;;;;;1.80;1.50;;;9.50;53.50;;;;;;5063541;28;20823;-72
2023/01/09 02:09:37;;;;;;;1.80;1.63;;;9.50;55.40;;;;;;5041343;28;20429;-74
2023/01/09 02:12:22;;;;;;;1.70;1.60;;;9.40;61.80;;;;;;5020706;28;20285;-70
2023/01/09 02:15:02;;;;;;;1.90;1.43;;;9.40;64.20;;;;;;5021594;28;20587;-71
2023/01/09 02:17:43;;;;;;;3.87;1.20;;;9.40;64.50;;;;;;5023970;28;20496;-70
2023/01/09 02:20:33;;;;;;;3.70;1.53;;;9.40;66.80;;;;;;5023984;28;20447;-71
2023/01/09 02:23:08;;;;;;;2.00;1.43;;;9.40;64.70;;;;;;5025057;28;20524;-72
2023/01/09 02:25:43;;;;;;;1.87;1.77;;;9.40;65.90;;;;;;5025717;28;20436;-70
2023/01/09 02:28:36;;;;;;;1.40;1.30;;;9.30;62.50;;;;;;5024035;28;21224;-71
2023/01/09 02:31:09;;;;;;;1.73;1.17;;;9.20;66.60;;;;;;5017865;28;20425;-70
2023/01/09 02:33:46;;;;;;;1.80;1.30;;;9.20;68.50;;;;;;5026201;28;20432;-72
2023/01/09 02:36:37;;;;;;;1.33;1.23;;;9.10;69.60;;;;;;5025476;28;20558;-71
2023/01/09 02:39:22;;;;;;;1.40;1.30;;;9.10;70.90;;;;;;5018864;28;20417;-70
2023/01/09 02:41:51;;;;;;;1.40;1.23;;;9.10;72.70;;;;;;5026709;28;20528;-71
2023/01/09 02:44:22;;;;;;;2.20;1.10;;;9.00;64.80;;;;;;5022085;28;21017;-71
2023/01/09 02:46:59;;;;;;;2.37;1.30;;;8.90;68.70;;;;;;5023516;28;20442;-71
2023/01/09 02:49:25;;;;;;;2.17;1.30;;;8.90;68.00;;;;;;5025648;28;20442;-72
2023/01/09 02:51:52;;;;;;;1.67;1.20;;;8.90;68.20;;;;;;5025179;28;20449;-71
2023/01/09 02:54:48;;;;;;;1.30;1.20;;;8.90;67.80;;;;;;5025712;28;20320;-71
2023/01/09 02:57:17;;;;;;;1.20;1.10;;;8.90;68.60;;;;;;5024476;28;20435;-72
2023/01/09 02:59:55;;;;;;;2.10;1.00;;;8.90;71.90;;;;;;5025707;28;20433;-71
2023/01/09 03:02:35;;;;;;;1.50;1.20;;;8.80;66.40;;;;;;5024098;28;20441;-73
2023/01/09 03:05:13;;;;;;;1.97;1.40;;;8.80;69.00;;;;;;5018515;28;20409;-71
2023/01/09 03:07:47;;;;;;;1.47;1.17;;;8.90;69.60;;;;;;5022052;28;20432;-75
2023/01/09 03:10:35;;;;;;;1.60;1.40;;;8.90;70.80;;;;;;5026244;28;20502;-71
2023/01/09 03:13:02;;;;;;;4.70;1.30;;;8.90;69.10;;;;;;5023892;28;20822;-72
2023/01/09 03:15:32;;;;;;;1.97;1.30;;;9.00;69.00;;;;;;5020750;28;21052;-71
2023/01/09 03:17:59;;;;;;;1.30;1.13;;;9.00;67.40;;;;;;5020209;28;20429;-71
2023/01/09 03:20:29;;;;;;;2.73;1.30;;;9.00;64.90;;;;;;5021577;28;20425;-70
2023/01/09 03:23:00;;;;;;;2.60;1.30;;;9.00;66.60;;;;;;5023682;28;20516;-69
2023/01/09 03:25:27;;;;;;;1.40;1.17;;;9.00;68.40;;;;;;5023748;28;20464;-71
2023/01/09 03:27:57;;;;;;;1.67;1.30;;;9.10;67.80;;;;;;5024567;28;20452;-71
2023/01/09 03:30:24;;;;;;;1.70;1.60;;;9.00;66.40;;;;;;5025757;28;20425;-71
2023/01/09 03:32:50;;;;;;;1.90;1.43;;;9.00;74.00;;;;;;5022645;28;20563;-73
2023/01/09 03:35:15;;;;;;;3.30;1.67;;;9.00;74.80;;;;;;5025779;28;20529;-72
2023/01/09 03:37:41;;;;;;;3.30;1.63;;;9.00;81.90;;;;;;5024781;28;20181;-72
2023/01/09 03:40:07;;;;;;;2.00;1.73;;;9.00;86.20;;;;;;5026516;28;20173;-73
2023/01/09 03:42:33;;;;;;;3.73;1.60;;;9.00;80.90;;;;;;5023749;28;20221;-71
2023/01/09 03:44:58;;;;;;;1.40;1.30;;;9.00;80.30;;;;;;5019704;28;20439;-71
2023/01/09 03:47:24;;;;;;;2.23;1.30;;;8.90;79.50;;;;;;5024856;28;20201;-71
2023/01/09 03:49:49;;;;;;;1.40;1.30;;;8.90;80.40;;;;;;5024829;28;20597;-71
2023/01/09 03:52:15;;;;;;;2.90;1.20;;;8.90;70.00;;;;;;5024162;28;20685;-71
2023/01/09 03:54:40;;;;;;;2.67;2.47;;;8.90;72.10;;;;;;5024784;28;20285;-71
2023/01/09 03:57:06;;;;;;;1.30;1.20;;;8.80;77.60;;;;;;5025369;28;20249;-71
2023/01/09 03:59:31;;;;;;;2.60;1.70;;;8.80;61.60;;;;;;5024637;28;20177;-71
2023/01/09 04:01:57;;;;;;;5.60;3.50;;;8.70;63.00;;;;;;5023971;28;20205;-71
2023/01/09 04:04:22;;;;;;;1.67;1.30;;;8.70;74.60;;;;;;5017777;28;20201;-71
2023/01/09 04:06:48;;;;;;;1.13;1.03;;;8.60;68.90;;;;;;5023647;28;20567;-72
2023/01/09 04:09:13;;;;;;;1.50;1.40;;;8.60;73.10;;;;;;5025481;28;20616;-73
2023/01/09 04:11:39;;;;;;;1.17;1.07;;;8.50;71.70;;;;;;5023347;28;20609;-71
2023/01/09 04:14:04;;;;;;;1.87;1.23;;;8.50;70.00;;;;;;5022049;28;20196;-71
2023/01/09 04:16:30;;;;;;;1.50;1.10;;;8.50;66.10;;;;;;5013991;28;20202;-71
2023/01/09 04:18:55;;;;;;;2.53;1.30;;;8.50;68.70;;;;;;5024973;28;20652;-68
2023/01/09 04:21:21;;;;;;;2.00;1.23;;;8.50;57.90;;;;;;5023941;28;20273;-71
2023/01/09 04:23:46;;;;;;;1.70;1.60;;;8.50;61.80;;;;;;5024991;28;20659;-71
2023/01/09 04:26:12;;;;;;;1.30;1.13;;;8.40;56.90;;;;;;5023863;28;20205;-71
2023/01/09 04:28:37;;;;;;;1.20;1.03;;;8.40;56.40;;;;;;5025196;28;20170;-71
2023/01/09 04:31:04;;;;;;;1.87;1.03;;;8.30;63.80;;;;;;5017908;28;20540;-70
2023/01/09 04:33:29;;;;;;;1.37;1.10;;;8.30;59.30;;;;;;5024468;28;20228;-73
2023/01/09 04:35:55;;;;;;;3.43;1.20;;;8.30;45.50;;;;;;5024912;28;20484;-70
2023/01/09 04:38:21;;;;;;;2.43;1.23;;;8.30;49.00;;;;;;5023697;28;20240;-70
2023/01/09 04:40:47;;;;;;;1.50;1.20;;;8.20;55.90;;;;;;5025407;28;20735;-71
2023/01/09 04:43:13;;;;;;;2.50;1.10;;;8.20;48.10;;;;;;5024541;28;20620;-71
2023/01/09 04:45:39;;;;;;;1.73;1.17;;;8.10;47.40;;;;;;5024556;28;20448;-71
2023/01/09 04:48:05;;;;;;;1.83;1.30;;;8.10;51.30;;;;;;5022760;28;20582;-73
2023/01/09 04:50:30;;;;;;;2.70;1.10;;;8.10;45.20;;;;;;5024525;28;20646;-72
2023/01/09 04:52:56;;;;;;;4.70;1.13;;;8.00;41.30;;;;;;5024494;28;20201;-69
2023/01/09 04:55:22;;;;;;;3.67;1.60;;;7.90;37.40;;;;;;5028322;28;20197;-71
2023/01/09 04:57:47;;;;;;;1.10;1.00;;;8.00;37.50;;;;;;5026682;28;20269;-69
2023/01/09 05:00:13;;;;;;;1.50;1.27;;;8.00;37.30;;;;;;5017713;28;20182;-72
2023/01/09 05:02:39;;;;;;;1.73;1.13;;;7.90;37.20;;;;;;5024965;28;20201;-71
2023/01/09 05:05:06;;;;;;;1.43;1.10;;;7.90;37.20;;;;;;5028111;28;20182;-71
2023/01/09 05:07:32;;;;;;;1.10;0.90;;;7.90;38.40;;;;;;5026807;28;20431;-70
2023/01/09 05:09:57;;;;;;;1.70;1.20;;;7.90;37.20;;;;;;5027770;28;20420;-70
2023/01/09 05:12:23;;;;;;;2.30;1.00;;;7.90;37.20;;;;;;5026519;28;20436;-69
2023/01/09 05:14:48;;;;;;;1.77;1.03;;;7.80;37.20;;;;;;5025848;28;20617;-71
2023/01/09 05:17:14;;;;;;;2.80;1.00;;;7.80;37.10;;;;;;5026039;28;20737;-71
2023/01/09 05:19:39;;;;;;;2.17;1.00;;;7.70;37.10;;;;;;5027440;28;20664;-71
2023/01/09 05:22:05;;;;;;;1.63;1.20;;;7.70;37.20;;;;;;5026409;28;20254;-71
2023/01/09 05:24:30;;;;;;;2.90;1.00;;;7.60;37.00;;;;;;5026836;28;20512;-73
2023/01/09 05:26:56;;;;;;;1.43;1.00;;;7.60;37.00;;;;;;5026965;28;20174;-71
2023/01/09 05:29:21;;;;;;;2.50;0.93;;;7.60;44.80;;;;;;5027172;28;20285;-70
2023/01/09 05:31:47;;;;;;;3.63;1.07;;;7.60;37.10;;;;;;5025978;28;20208;-71
2023/01/09 05:34:12;;;;;;;1.63;1.00;;;7.60;38.50;;;;;;5025780;28;20197;-70
2023/01/09 05:36:38;;;;;;;1.83;0.90;;;7.60;39.60;;;;;;5027060;28;20676;-72
2023/01/09 05:39:04;;;;;;;2.00;1.07;;;7.40;36.90;;;;;;5028391;28;20178;-71
2023/01/09 05:41:30;;;;;;;1.70;0.90;;;7.40;38.30;;;;;;5025704;28;20197;-69
2023/01/09 05:43:55;;;;;;;5.20;1.10;;;7.30;45.90;;;;;;5020152;28;20229;-71
2023/01/09 05:46:21;;;;;;;1.20;1.00;;;7.30;42.10;;;;;;5014923;28;20225;-70
2023/01/09 05:48:46;;;;;;;2.80;1.17;;;7.30;47.20;;;;;;5022948;28;20208;-69
2023/01/09 05:51:12;;;;;;;1.57;1.03;;;7.20;44.60;;;;;;5025546;28;20182;-74
2023/01/09 05:53:38;;;;;;;1.00;0.90;;;7.20;45.80;;;;;;5026714;28;20190;-70
2023/01/09 05:56:03;;;;;;;1.83;1.20;;;7.20;44.80;;;;;;5026682;28;20198;-70
2023/01/09 05:58:29;;;;;;;2.17;1.10;;;7.20;45.30;;;;;;5027469;28;20197;-71
2023/01/09 06:00:54;;;;;;;2.80;1.23;;;7.20;44.80;;;;;;5032874;28;20226;-72
2023/01/09 06:03:20;;;;;;;2.10;1.67;;;7.20;37.00;;;;;;5025864;28;20425;-72
2023/01/09 06:05:45;;;;;;;3.33;1.17;;;7.20;37.30;;;;;;5050152;27;20181;-70
2023/01/09 06:08:11;;;;;;;1.83;1.20;;;7.20;43.20;;;;;;5021827;28;20651;-71
2023/01/09 06:10:36;;;;;;;4.37;1.00;;;7.20;41.40;;;;;;5027412;28;20174;-72
2023/01/09 06:13:02;;;;;;;1.60;1.20;;;7.20;47.20;;;;;;5024696;28;20202;-71
2023/01/09 06:15:27;;;;;;;1.13;1.03;;;7.20;36.80;;;;;;5017148;28;20216;-71
2023/01/09 06:17:53;;;;;;;1.63;1.13;;;7.30;36.90;;;;;;5022486;28;20186;-70
2023/01/09 06:20:19;;;;;;;2.47;1.10;;;7.30;36.80;;;;;;5021619;28;20181;-71
2023/01/09 06:22:44;;;;;;;3.10;1.10;;;7.30;36.80;;;;;;5025190;28;20242;-71
2023/01/09 06:25:11;;;;;;;4.40;1.40;;;7.30;36.70;;;;;;5021866;28;20178;-70
2023/01/09 06:27:36;;;;;;;4.27;1.40;;;7.40;36.80;;;;;;5019913;28;20582;-71
2023/01/09 06:30:02;;;;;;;2.77;1.30;;;7.40;31.70;;;;;;5026679;28;20432;-71
2023/01/09 06:32:28;;;;;;;7.80;2.57;;;7.50;32.00;;;;;;5024244;28;20206;-70
2023/01/09 06:34:53;;;;;;;1.40;1.30;;;7.60;23.70;;;;;;5026956;28;20258;-71
2023/01/09 06:37:19;;;;;;;2.70;1.30;;;7.60;19.80;;;;;;5025825;28;20182;-73
2023/01/09 06:39:44;;;;;;;1.60;1.20;;;7.60;16.30;;;;;;5026745;28;20182;-71
2023/01/09 06:42:10;;;;;;;2.83;1.30;;;7.70;19.30;;;;;;5024313;28;20655;-70
2023/01/09 06:44:35;;;;;;;2.90;1.20;;;7.60;14.00;;;;;;5027939;28;20178;-72
2023/01/09 06:47:02;;;;;;;2.40;1.23;;;7.70;12.70;;;;;;5025543;28;20178;-71
2023/01/09 06:49:27;;;;;;;3.07;1.07;;;7.80;13.60;;;;;;5026148;28;20205;-72
2023/01/09 06:51:53;;;;;;;2.80;1.23;;;7.80;8.40;;;;;;5021479;28;20853;-71
2023/01/09 06:54:19;;;;;;;3.77;1.30;;;7.80;6.10;;;;;;5024243;28;20509;-71
2023/01/09 06:56:45;;;;;;;3.90;1.17;;;7.80;4.70;;;;;;5025019;28;20510;-70
2023/01/09 06:59:11;;;;;;;3.17;1.20;;;7.90;6.80;;;;;;5024866;28;20432;-70
2023/01/09 07:01:38;;;;;;;7.03;1.20;;;7.90;1.00;;;;;;5019673;28;20245;-71
2023/01/09 07:04:09;;;;;;;4.40;1.17;;;7.90;1.00;;;;;;5027226;28;20178;-70
2023/01/09 07:06:35;;;;;;;5.33;1.10;;;8.00;2.70;;;;;;5025253;28;20429;-71
2023/01/09 07:09:00;;;;;;;4.20;1.20;;;8.00;1.40;;;;;;5024976;28;20455;-71
2023/01/09 07:11:26;;;;;;;3.80;1.10;;;8.00;1.00;;;;;;5025223;28;21028;-69
2023/01/09 07:13:51;;;;;;;5.57;1.10;;;8.00;1.00;;;;;;5037440;27;20181;-71
2023/01/09 07:16:17;;;;;;;2.80;1.17;;;8.00;1.00;;;;;;5021131;27;20465;-70
2023/01/09 15:56:13;;;;;;;2.27;1.77;;;6.80;20.20;;;;;;5064938;28;20572;-69
2023/01/09 15:58:46;;;;;;;1.77;1.40;;;6.80;24.50;;;;;;5066248;28;20801;-71
2023/01/09 16:01:31;;;;;;;3.30;1.67;;;6.90;18.90;;;;;;5058817;28;20856;-71
2023/01/09 16:04:05;;;;;;;3.33;2.07;;;7.00;13.50;;;;;;5064255;28;20615;-71
2023/01/09 16:06:34;;;;;;;2.73;1.40;;;7.10;14.10;;;;;;5065403;28;20444;-73
2023/01/09 16:09:00;;;;;;;1.60;1.07;;;7.20;14.70;;;;;;5049980;28;20431;-71
2023/01/09 16:11:32;;;;;;;3.37;1.37;;;7.30;5.80;;;;;;5060814;28;20453;-71
2023/01/09 16:14:21;;;;;;;6.47;4.40;;;7.30;6.20;;;;;;5064928;28;20967;-73
2023/01/09 16:16:48;;;;;;;2.80;1.40;;;6.90;6.10;;;;;;5057138;28;20442;-71
2023/01/09 16:19:42;;;;;;;2.07;1.33;;;7.40;5.40;;;;;;5065597;28;20720;-73
2023/01/09 16:22:19;;;;;;;3.87;2.13;;;7.40;4.10;;;;;;5066483;28;20553;-72
2023/01/09 16:24:45;;;;;;;3.63;1.50;;;7.40;7.00;;;;;;5059480;28;20462;-72
2023/01/09 16:27:34;;;;;;;3.07;1.33;;;7.30;1.20;;;;;;5061505;28;20519;-72
2023/01/09 16:30:03;;;;;;;2.60;1.20;;;7.30;2.30;;;;;;5059632;28;20418;-71
2023/01/09 16:32:28;;;;;;;2.80;1.20;;;7.40;4.90;;;;;;5063659;28;20533;-73
2023/01/09 16:34:57;;;;;;;4.10;1.30;;;7.30;1.20;;;;;;5057402;28;21059;-72
2023/01/09 16:37:24;;;;;;;4.17;1.57;;;7.30;1.00;;;;;;5065541;28;20208;-74
2023/01/09 16:40:22;;;;;;;1.93;1.20;;;7.30;3.60;;;;;;5064306;28;20489;-71
2023/01/09 16:42:59;;;;;;;4.25;1.80;;;7.40;2.80;;;;;;5056201;28;20894;-71
2023/01/09 16:45:29;;;;;;;1.60;1.50;;;7.40;5.60;;;;;;5054081;28;20531;-70
2023/01/09 16:47:56;;;;;;;3.47;1.50;;;7.40;3.80;;;;;;5064498;28;20407;-71
2023/01/09 16:50:23;;;;;;;2.10;1.57;;;7.40;4.30;;;;;;5059196;28;20438;-71
2023/01/09 16:52:49;;;;;;;12.90;7.13;;;7.40;7.20;;;;;;5059990;28;20451;-70
2023/01/09 16:55:15;;;;;;;17.80;10.00;;;7.40;10.00;;;;;;5051806;28;20833;-70
2023/01/09 16:57:40;;;;;;;8.87;5.20;;;7.30;7.80;;;;;;5062459;28;20299;-71
2023/01/09 17:00:27;;;;;;;8.27;4.10;;;7.30;9.40;;;;;;5061566;28;20180;-73
2023/01/09 17:02:52;;;;;;;9.30;3.83;;;7.40;10.80;;;;;;5057180;28;20319;-71
2023/01/09 17:05:18;;;;;;;6.73;3.00;;;7.40;13.50;;;;;;5056003;28;20846;-70
2023/01/09 17:07:43;;;;;;;5.53;2.87;;;7.40;10.00;;;;;;5048295;28;20193;-73
2023/01/09 17:10:19;;;;;;;4.00;2.53;;;7.40;14.30;;;;;;5046981;28;20194;-70
2023/01/09 17:12:45;;;;;;;3.87;2.40;;;7.50;15.80;;;;;;5045582;28;20197;-71
2023/01/09 17:15:10;;;;;;;3.83;2.30;;;7.60;13.50;;;;;;5047699;28;20999;-71
2023/01/09 17:17:36;;;;;;;4.43;2.70;;;7.60;9.80;;;;;;5045948;28;20187;-69
2023/01/09 17:20:03;;;;;;;4.00;2.40;;;7.60;10.20;;;;;;5052419;28;20187;-71
2023/01/09 17:22:28;;;;;;;3.00;1.83;;;7.60;14.80;;;;;;5039508;28;20232;-71
2023/01/09 17:30:22;;;;;;;3.20;1.83;;;7.40;30.70;;;;;;5047491;28;20530;-72
2023/01/09 17:32:48;;;;;;;7.90;2.60;;;7.30;29.50;;;;;;5048852;28;20538;-70
2023/01/09 17:35:14;;;;;;;6.90;3.07;;;7.30;31.60;;;;;;5049178;28;20338;-70
2023/01/09 17:37:40;;;;;;;5.90;2.53;;;7.30;36.60;;;;;;5046095;28;20181;-71
2023/01/09 17:40:20;;;;;;;9.17;3.87;;;7.20;36.60;;;;;;5043435;28;20451;-70
2023/01/09 17:42:46;;;;;;;10.17;4.43;;;7.20;36.70;;;;;;5048417;28;20466;-70
2023/01/09 17:45:12;;;;;;;5.00;2.83;;;7.10;36.70;;;;;;5046385;28;20431;-71
2023/01/09 17:47:38;;;;;;;5.77;3.40;;;7.20;46.20;;;;;;5043839;28;20252;-70
2023/01/09 17:50:05;;;;;;;9.47;5.63;;;7.20;36.80;;;;;;5051739;28;20495;-71
2023/01/09 17:52:31;;;;;;;6.63;3.90;;;7.10;46.70;;;;;;5037604;28;20260;-71
2023/01/09 17:55:03;;;;;;;12.17;6.80;;;7.10;37.00;;;;;;5051308;28;20830;-73
2023/01/09 17:57:30;;;;;;;10.50;6.10;;;7.10;52.00;;;;;;5042921;28;20431;-71
2023/01/09 17:59:55;;;;;;;8.00;4.63;;;7.20;49.00;;;;;;5051049;28;20523;-73
2023/01/09 18:02:21;;;;;;;5.60;3.50;;;7.10;51.00;;;;;;5044549;28;20750;-68
2023/01/09 18:04:46;;;;;;;10.33;4.37;;;7.10;55.90;;;;;;5051200;28;20181;-68
2023/01/09 18:07:16;;;;;;;4.43;2.47;;;7.10;53.50;;;;;;5049016;28;20569;-69
2023/01/09 18:09:42;;;;;;;7.00;2.73;;;7.10;53.80;;;;;;5045253;28;20251;-69
2023/01/09 18:12:08;;;;;;;7.73;2.77;;;7.10;54.30;;;;;;5035125;28;20455;-68
2023/01/09 18:14:36;;;;;;;6.10;2.33;;;7.10;58.30;;;;;;5049152;28;20475;-69
2023/01/09 18:17:04;;;;;;;4.83;3.00;;;7.10;58.00;;;;;;5044435;28;20568;-68
2023/01/09 18:19:30;;;;;;;6.43;3.83;;;7.10;56.30;;;;;;5042435;28;20435;-69
2023/01/09 18:21:57;;;;;;;3.73;2.80;;;7.00;57.20;;;;;;5044781;28;20419;-69
2023/01/09 18:24:22;;;;;;;4.33;3.00;;;7.00;55.30;;;;;;5065785;28;20180;-69
2023/01/09 18:26:48;;;;;;;5.10;3.43;;;7.00;58.40;;;;;;5034305;28;20470;-71
2023/01/09 18:29:14;;;;;;;6.70;2.17;;;7.00;60.00;;;;;;5031360;28;20276;-70
2023/01/09 18:31:39;;;;;;;4.87;2.00;;;7.10;61.40;;;;;;5029078;28;20228;-73
2023/01/09 18:34:06;;;;;;;4.43;2.60;;;7.10;59.20;;;;;;5030818;28;20233;-71
2023/01/09 18:36:32;;;;;;;6.20;2.83;;;7.00;60.00;;;;;;5030486;28;20584;-70
2023/01/09 18:39:00;;;;;;;4.93;2.60;;;7.00;66.00;;;;;;5031134;28;20408;-73
2023/01/09 18:41:26;;;;;;;4.10;2.50;;;7.20;55.60;;;;;;5029440;28;20751;-69
2023/01/09 18:43:54;;;;;;;4.50;3.87;;;7.20;54.40;;;;;;5038417;28;20420;-73
2023/01/09 18:46:23;;;;;;;4.53;3.10;;;7.10;55.00;;;;;;5049881;28;20415;-70
2023/01/09 18:48:52;;;;;;;5.30;3.00;;;7.10;56.70;;;;;;5050818;28;20419;-71
2023/01/09 18:51:18;;;;;;;4.40;2.60;;;7.10;56.20;;;;;;5053298;28;20557;-71
2023/01/09 18:53:44;;;;;;;3.53;2.13;;;7.10;54.00;;;;;;5061865;28;20959;-71
2023/01/09 18:56:09;;;;;;;6.50;2.87;;;7.10;58.30;;;;;;5070093;28;20407;-70
2023/01/09 18:58:35;;;;;;;5.50;3.00;;;7.10;55.90;;;;;;5053839;28;20181;-71
2023/01/09 19:01:00;;;;;;;5.83;3.50;;;7.20;58.20;;;;;;5049208;28;20185;-69
2023/01/09 19:03:27;;;;;;;4.70;2.40;;;7.10;52.20;;;;;;5050381;28;20204;-71
2023/01/09 19:05:52;;;;;;;13.03;3.53;;;7.10;48.10;;;;;;5050528;28;20188;-70
2023/01/09 19:08:18;;;;;;;5.30;3.80;;;7.10;51.70;;;;;;5049685;28;20427;-71
2023/01/09 19:10:52;;;;;;;3.67;2.07;;;7.10;51.00;;;;;;5048789;28;20256;-70
2023/01/09 19:13:18;;;;;;;6.97;4.10;;;7.10;50.00;;;;;;5033425;28;20228;-70
2023/01/09 19:15:43;;;;;;;12.57;6.93;;;7.10;45.70;;;;;;5050426;28;20568;-70
2023/01/09 19:18:09;;;;;;;7.33;5.77;;;7.10;49.50;;;;;;5041842;28;20177;-70
2023/01/09 19:20:37;;;;;;;11.20;5.20;;;7.10;50.50;;;;;;5045151;28;20614;-71
2023/01/09 19:23:02;;;;;;;4.10;2.50;;;7.20;55.10;;;;;;5049097;28;20197;-72
2023/01/09 19:25:28;;;;;;;3.50;2.60;;;7.20;42.00;;;;;;5047815;28;20439;-70
2023/01/09 19:27:54;;;;;;;4.23;3.00;;;7.10;42.70;;;;;;5049346;28;20521;-70
2023/01/09 19:30:20;;;;;;;6.73;3.20;;;7.20;44.90;;;;;;5049661;28;20177;-70
2023/01/09 19:32:46;;;;;;;3.93;2.20;;;7.20;43.90;;;;;;5047943;28;20427;-71
2023/01/09 19:35:11;;;;;;;9.30;2.33;;;7.10;41.40;;;;;;5049572;28;20612;-71
2023/01/09 19:37:37;;;;;;;4.23;2.57;;;7.10;44.30;;;;;;5048504;28;20192;-73
2023/01/09 19:40:03;;;;;;;2.33;2.00;;;7.20;44.30;;;;;;5049820;28;20165;-70
2023/01/09 19:42:29;;;;;;;4.23;2.20;;;7.20;46.80;;;;;;5048160;28;20224;-70
2023/01/09 19:44:54;;;;;;;3.03;2.00;;;7.20;42.50;;;;;;5044690;28;20456;-70
2023/01/09 19:47:20;;;;;;;5.90;2.80;;;7.20;49.00;;;;;;5038833;28;20622;-75
2023/01/09 19:49:45;;;;;;;6.60;4.00;;;7.20;39.20;;;;;;5056216;28;20181;-70
2023/01/09 19:52:11;;;;;;;6.63;2.90;;;7.20;36.80;;;;;;5038538;28;20208;-68
2023/01/09 19:54:36;;;;;;;6.93;5.97;;;7.20;36.70;;;;;;5055034;28;20205;-72
2023/01/09 19:57:02;;;;;;;5.67;5.17;;;7.20;36.80;;;;;;5028010;28;20170;-71
2023/01/09 19:59:27;;;;;;;5.90;4.00;;;7.10;36.90;;;;;;5029329;28;20166;-70
2023/01/09 20:01:54;;;;;;;6.90;3.70;;;7.20;36.80;;;;;;5026650;28;20185;-70
2023/01/09 20:04:19;;;;;;;9.80;6.37;;;7.10;36.60;;;;;;5032514;28;20685;-70
2023/01/09 20:06:47;;;;;;;6.17;4.67;;;7.20;36.70;;;;;;5040169;28;20428;-72
2023/01/09 20:09:15;;;;;;;8.07;4.20;;;7.20;36.70;;;;;;5040588;28;20194;-72
2023/01/09 20:11:43;;;;;;;7.13;5.13;;;7.20;36.70;;;;;;5046708;28;20501;-71
2023/01/09 20:14:16;;;;;;;5.70;3.60;;;7.10;36.70;;;;;;5048493;28;20466;-70
2023/01/09 20:16:47;;;;;;;8.90;5.43;;;7.10;46.30;;;;;;5046563;28;20407;-70
2023/01/09 20:19:13;;;;;;;6.63;4.00;;;7.10;49.50;;;;;;5048860;28;20500;-72
2023/01/09 20:21:39;;;;;;;3.63;2.63;;;7.00;43.80;;;;;;5049021;28;20449;-70
2023/01/09 20:24:06;;;;;;;3.73;2.80;;;7.00;46.50;;;;;;5050914;28;20416;-70
2023/01/09 20:26:33;;;;;;;3.00;2.70;;;7.00;36.50;;;;;;5035888;28;20201;-70
2023/01/09 20:29:00;;;;;;;5.07;3.50;;;7.00;46.50;;;;;;5046575;28;20937;-70
2023/01/09 20:31:27;;;;;;;4.10;2.77;;;6.90;46.10;;;;;;5033052;28;20972;-70
2023/01/09 20:33:54;;;;;;;4.30;2.70;;;6.90;48.70;;;;;;5039633;28;20871;-70
2023/01/09 20:36:26;;;;;;;5.10;2.80;;;6.90;47.70;;;;;;5048072;28;20825;-70
2023/01/09 20:38:52;;;;;;;7.87;2.30;;;6.90;49.90;;;;;;5047590;28;20412;-70
2023/01/09 20:41:24;;;;;;;6.47;3.23;;;6.90;42.70;;;;;;5068047;28;20413;-71
2023/01/09 20:43:50;;;;;;;2.97;2.07;;;6.90;40.90;;;;;;5037580;28;20887;-70
2023/01/09 20:46:16;;;;;;;6.13;2.30;;;6.90;43.30;;;;;;5031990;28;20498;-71
2023/01/09 20:48:42;;;;;;;6.10;2.77;;;6.90;36.50;;;;;;5031875;28;20784;-72
2023/01/09 20:51:09;;;;;;;13.77;6.90;;;6.90;36.80;;;;;;5054894;28;20176;-71
2023/01/09 20:53:34;;;;;;;2.97;2.37;;;6.90;39.40;;;;;;5059807;28;20200;-70
2023/01/09 20:56:05;;;;;;;3.97;2.50;;;7.00;41.10;;;;;;5051989;28;20596;-71
2023/01/09 20:58:30;;;;;;;3.80;2.70;;;7.00;46.70;;;;;;5051872;28;20172;-69
2023/01/09 21:00:56;;;;;;;4.13;2.23;;;7.00;45.20;;;;;;5033079;28;20897;-69
2023/01/09 21:03:22;;;;;;;3.23;2.30;;;7.00;36.60;;;;;;5031603;28;20186;-70
2023/01/09 21:05:47;;;;;;;3.37;2.27;;;7.00;39.10;;;;;;5037071;28;20185;-70
2023/01/09 21:08:13;;;;;;;6.10;2.57;;;7.00;36.50;;;;;;5044364;28;20928;-70
2023/01/09 21:10:38;;;;;;;4.20;1.80;;;6.90;36.50;;;;;;5031566;28;20247;-70
2023/01/09 21:13:04;;;;;;;2.70;2.17;;;6.90;36.40;;;;;;5030502;28;20554;-70
2023/01/09 21:15:29;;;;;;;3.27;2.60;;;6.90;36.50;;;;;;5031827;28;20212;-70
2023/01/09 21:17:55;;;;;;;3.40;2.47;;;6.90;36.50;;;;;;5045337;28;20181;-70
2023/01/09 21:20:21;;;;;;;2.83;2.00;;;6.90;36.50;;;;;;5048462;28;20173;-70
2023/01/09 21:22:47;;;;;;;6.37;2.67;;;6.90;43.50;;;;;;5049421;28;20209;-70
2023/01/09 21:25:14;;;;;;;3.57;1.80;;;7.00;36.70;;;;;;5048335;28;20412;-70
2023/01/09 21:27:49;;;;;;;2.23;2.03;;;7.00;36.50;;;;;;5048612;28;20169;-70
2023/01/09 21:30:14;;;;;;;5.53;2.90;;;7.00;36.50;;;;;;5051693;28;20417;-70
2023/01/09 21:32:40;;;;;;;2.30;1.97;;;7.00;36.40;;;;;;5049686;28;20435;-70
2023/01/09 21:35:06;;;;;;;3.10;1.73;;;6.90;36.40;;;;;;5032805;28;20297;-69
2023/01/09 21:37:35;;;;;;;2.30;1.63;;;6.90;36.30;;;;;;5031079;28;20172;-69
2023/01/09 21:40:01;;;;;;;2.37;2.10;;;6.90;36.40;;;;;;5031593;28;20405;-71
2023/01/09 21:48:04;;;;;;;2.50;1.70;;;7.00;36.40;;;;;;5069967;28;20414;-70
2023/01/09 21:50:31;;;;;;;8.17;5.10;;;7.00;36.30;;;;;;5062523;28;20522;-69
2023/01/09 21:52:57;;;;;;;2.80;2.20;;;8.30;37.50;;;;;;5057320;28;20814;-71